MSC Vienna — A8CI9 — position and weather

sailwx.info

Track history (hours):
 
Tides and Currents Weather Stations Pressure Air Temp Water Temp Dewpoint Dewpoint Depression Visibility Wind Speed Wind Dir Waves Ship Positions

MSC Vienna

Last reported at 2016-Jul-02 03:31 UTC. Time now 2016-Jul-02 04:00 UTC.
Position N 43°29' E 010°15'.

Length 260.1 m; beam 32.2 m; draft 12 m.

Type: Cargo ship. MMSI: 636090654.

Date/timePositionNaut miles runAvg speedWind from/ knotsBaromVisibWave heightAir tempDewpointWater temp
2016-Jul-02 03:31N 43°29' E 010°15'0 0.0
2016-Jul-02 02:31N 43°29' E 010°15'0 0.0
2016-Jul-02 01:31N 43°29' E 010°15'0 0.0
2016-Jul-02 00:31N 43°29' E 010°15'0 0.0
2016-Jul-01 23:31N 43°29' E 010°15'0 0.0
2016-Jul-01 22:31N 43°29' E 010°15'0 0.0
2016-Jul-01 21:31N 43°29' E 010°15'0 0.0
2016-Jul-01 20:31N 43°29' E 010°15'0 0.0
2016-Jul-01 19:31N 43°29' E 010°15'0 0.0
2016-Jul-01 18:31N 43°29' E 010°15'0 0.0
2016-Jul-01 17:31N 43°29' E 010°15'0 0.0
2016-Jul-01 16:31N 43°29' E 010°15'0 0.0
2016-Jul-01 15:31N 43°29' E 010°15'0 0.0
2016-Jul-01 14:31N 43°29' E 010°15'0 0.0
2016-Jul-01 13:31N 43°29' E 010°15'0 0.2
2016-Jul-01 12:33N 43°29' E 010°15'7 6.9
2016-Jul-01 11:33N 43°23' E 010°11'1212.4
2016-Jul-01 10:33N 43°11' E 010°08'1312.5
2016-Jul-01 09:33N 42°59' E 010°03'1612.4
2016-Jul-01 08:15N 42°45' E 009°52'1012.7
2016-Jul-01 07:29N 42°35' E 009°52'1312.2
2016-Jul-01 06:24N 42°22' E 009°53'1112.8
2016-Jul-01 05:33N 42°11' E 009°54'1313.2
2016-Jul-01 04:33N 41°58' E 009°54'1312.9
2016-Jul-01 03:33N 41°45' E 009°55'1313.2
2016-Jul-01 02:33N 41°32' E 009°56'1413.0
2016-Jul-01 01:31N 41°18' E 009°56'1212.6
2016-Jul-01 00:33N 41°06' E 009°57'1312.6
2016-Jun-30 23:33N 40°54' E 009°58'1313.1
2016-Jun-30 22:32N 40°40' E 009°58'1212.6
2016-Jun-30 21:33N 40°28' E 009°59'1212.5
2016-Jun-30 20:33N 40°15' E 009°59'1312.7
2016-Jun-30 19:33N 40°03' E 009°59'2612.9
2016-Jun-30 17:31N 39°37' E 009°51'1412.7
2016-Jun-30 16:25N 39°23' E 009°47'1112.6
2016-Jun-30 15:33N 39°13' E 009°44'1411.7
2016-Jun-30 14:19N 38°59' E 009°37'810.5
2016-Jun-30 13:33N 38°59' E 009°27'1211.8
2016-Jun-30 12:33N 39°05' E 009°13'9 8.8
2016-Jun-30 11:33N 39°11' E 009°06'2 2.0
2016-Jun-30 10:33N 39°13' E 009°04'0 0.0
2016-Jun-30 09:33N 39°13' E 009°04'0 0.0
2016-Jun-30 08:33N 39°13' E 009°04'0 0.0
2016-Jun-30 07:33N 39°13' E 009°04'0 0.0
2016-Jun-30 04:33N 39°13' E 009°04'0 0.0
2016-Jun-30 03:33N 39°13' E 009°04'0 0.0
2016-Jun-30 02:33N 39°13' E 009°04'0 0.0
2016-Jun-30 01:33N 39°13' E 009°04'0 0.0
2016-Jun-30 00:33N 39°13' E 009°04'0 0.0
2016-Jun-29 23:33N 39°13' E 009°04'0 0.0
2016-Jun-29 22:33N 39°13' E 009°04'0 0.0
2016-Jun-29 21:33N 39°13' E 009°04'0 0.0
2016-Jun-29 20:33N 39°13' E 009°04'0 0.0
2016-Jun-29 19:33N 39°13' E 009°04'0 0.0
2016-Jun-29 18:33N 39°13' E 009°04'0 0.0
2016-Jun-29 17:33N 39°13' E 009°04'0 0.0
2016-Jun-29 16:33N 39°13' E 009°04'0 0.0
2016-Jun-29 15:33N 39°13' E 009°04'0 0.0
2016-Jun-29 14:33N 39°13' E 009°04'0 0.0
2016-Jun-29 13:33N 39°13' E 009°04'0 0.0
2016-Jun-29 12:33N 39°13' E 009°04'0 0.0
2016-Jun-29 11:33N 39°13' E 009°04'0 0.0
2016-Jun-29 10:33N 39°13' E 009°04'0 0.0
2016-Jun-29 09:33N 39°13' E 009°04'0 0.0
2016-Jun-29 08:33N 39°13' E 009°04'0 0.3
2016-Jun-29 07:33N 39°12' E 009°05'2 1.8
2016-Jun-29 06:20N 39°10' E 009°05'0 0.0
2016-Jun-29 05:32N 39°10' E 009°05'0 0.0
2016-Jun-29 04:32N 39°10' E 009°05'0 0.0
2016-Jun-29 03:32N 39°10' E 009°05'0 0.0
2016-Jun-29 02:32N 39°10' E 009°05'0 0.0
2016-Jun-29 01:32N 39°10' E 009°05'0 0.0
2016-Jun-29 00:32N 39°10' E 009°05'0 0.0
2016-Jun-28 23:32N 39°10' E 009°05'0 0.0
2016-Jun-28 22:32N 39°10' E 009°05'0 0.0
2016-Jun-28 21:32N 39°10' E 009°05'0 0.0
2016-Jun-28 20:32N 39°10' E 009°05'0 0.0
2016-Jun-28 19:32N 39°10' E 009°05'0 0.0
2016-Jun-28 18:32N 39°10' E 009°05'0 0.0
2016-Jun-28 17:32N 39°10' E 009°05'0 0.1
2016-Jun-28 16:32N 39°10' E 009°05'0 0.0
2016-Jun-28 15:32N 39°10' E 009°05'0 0.0
2016-Jun-28 14:32N 39°11' E 009°05'0 0.0
2016-Jun-28 13:32N 39°10' E 009°05'0 0.0
2016-Jun-28 12:32N 39°10' E 009°05'0 0.0
2016-Jun-28 11:32N 39°10' E 009°05'0 0.0
2016-Jun-28 10:32N 39°10' E 009°05'0 0.0
2016-Jun-28 09:32N 39°10' E 009°05'0 0.0
2016-Jun-28 08:32N 39°10' E 009°05'0 0.0
2016-Jun-28 07:32N 39°10' E 009°05'0 0.0
2016-Jun-28 06:32N 39°10' E 009°05'0 0.0
2016-Jun-28 04:32N 39°10' E 009°05'0 0.0
2016-Jun-28 03:32N 39°10' E 009°05'0 0.0
2016-Jun-28 02:32N 39°10' E 009°05'0 0.0
2016-Jun-28 01:32N 39°10' E 009°05'0 0.0
2016-Jun-28 00:20N 39°10' E 009°05'0 0.0
2016-Jun-27 23:32N 39°10' E 009°05'0 0.0
2016-Jun-27 22:32N 39°10' E 009°05'0 0.0
2016-Jun-27 21:32N 39°10' E 009°05'0 0.0
2016-Jun-27 20:32N 39°10' E 009°05'0 0.0
2016-Jun-27 19:32N 39°10' E 009°05'0 0.0
2016-Jun-27 18:32N 39°10' E 009°05'0 0.0
2016-Jun-27 17:32N 39°10' E 009°05'0 0.0
2016-Jun-27 16:32N 39°10' E 009°05'0 0.0
2016-Jun-27 15:32N 39°10' E 009°05'0 0.0
2016-Jun-27 14:32N 39°10' E 009°05'0 0.0
2016-Jun-27 13:32N 39°10' E 009°05'0 0.0
2016-Jun-27 12:32N 39°10' E 009°05'0 0.0
2016-Jun-27 11:32N 39°10' E 009°05'0 0.0
2016-Jun-27 10:32N 39°10' E 009°05'0 0.0
2016-Jun-27 09:32N 39°10' E 009°05'0 0.0
2016-Jun-27 07:32N 39°10' E 009°05'0 0.0
2016-Jun-27 06:32N 39°10' E 009°05'0 0.0
2016-Jun-27 05:32N 39°10' E 009°05'0 0.1
2016-Jun-27 04:33N 39°10' E 009°05'8 8.4
2016-Jun-27 03:33N 39°04' E 009°13'1211.7
2016-Jun-27 02:33N 38°57' E 009°24'1211.5
2016-Jun-27 01:33N 38°50' E 009°37'1512.1
2016-Jun-27 00:19N 38°44' E 009°54'912.3
2016-Jun-26 23:33N 38°36' E 009°60'1211.5
2016-Jun-26 22:33N 38°29' E 010°12'1212.1
2016-Jun-26 21:32N 38°22' E 010°25'1212.1
2016-Jun-26 20:33N 38°15' E 010°37'1312.6
2016-Jun-26 19:33N 38°08' E 010°50'1212.5
2016-Jun-26 18:33N 38°00' E 011°03'8 8.3
2016-Jun-26 17:33N 37°55' E 011°12'16 7.8
2016-Jun-26 15:33N 37°46' E 011°27'1312.8
2016-Jun-26 14:33N 37°39' E 011°41'1212.2
2016-Jun-26 13:32N 37°32' E 011°54'1212.1
2016-Jun-26 12:33N 37°26' E 012°07'1211.6
2016-Jun-26 11:33N 37°20' E 012°19'1211.8
2016-Jun-26 10:33N 37°14' E 012°32'1211.9
2016-Jun-26 09:33N 37°08' E 012°45'1212.0
2016-Jun-26 08:33N 37°01' E 012°57'1211.7
2016-Jun-26 07:33N 36°56' E 013°10'1211.6
2016-Jun-26 06:33N 36°50' E 013°23'1111.2
2016-Jun-26 05:33N 36°45' E 013°35'1211.6
2016-Jun-26 04:33N 36°39' E 013°48'1111.4
2016-Jun-26 03:33N 36°33' E 014°00'1010.4
2016-Jun-26 02:33N 36°28' E 014°12'1212.4
2016-Jun-26 01:33N 36°22' E 014°25'1212.2
2016-Jun-26 00:33N 36°17' E 014°38'1212.3
2016-Jun-25 23:33N 36°11' E 014°52'1212.2
2016-Jun-25 22:32N 36°06' E 015°06'1212.6
2016-Jun-25 21:33N 36°02' E 015°20'1212.2
2016-Jun-25 20:32N 35°58' E 015°35'5111.8
2016-Jun-25 16:14N 35°44' E 016°35'58312.1
2016-Jun-23 16:14N 32°51' E 027°49'811.5
2016-Jun-23 15:32N 32°48' E 027°58'105 9.6
2016-Jun-23 04:33N 32°17' E 029°58'1312.5
2016-Jun-23 03:33N 32°14' E 030°12'1312.7
2016-Jun-23 02:33N 32°10' E 030°26'1212.4
2016-Jun-23 01:33N 32°06' E 030°40'1312.9
2016-Jun-23 00:33N 32°02' E 030°55'3112.6
2016-Jun-22 22:06N 31°53' E 031°29'712.4
2016-Jun-22 21:33N 31°51' E 031°37'1212.2
2016-Jun-22 20:33N 31°47' E 031°51'1211.8
2016-Jun-22 19:33N 31°42' E 032°03'1212.0
2016-Jun-22 18:33N 31°33' E 032°13'1310.5
2016-Jun-22 17:18N 31°23' E 032°24'16 9.2
2016-Jun-22 15:33N 31°08' E 032°19'  
Track history (hours):
 
Tides and Currents Weather Stations Pressure Air Temp Water Temp Dewpoint Dewpoint Depression Visibility Wind Speed Wind Dir Waves Ship Positions

MSC Vienna

Last reported at 2016-Jul-02 03:31 UTC. Time now 2016-Jul-02 04:00 UTC.
Position N 43°29' E 010°15'.

Length 260.1 m; beam 32.2 m; draft 12 m.

Type: Cargo ship. MMSI: 636090654.

Date/timePositionNaut miles runAvg speedWind from/ knotsBaromVisibWave heightAir tempDewpointWater temp
2016-Jul-02 03:31N 43°29' E 010°15'0 0.0
2016-Jul-02 02:31N 43°29' E 010°15'0 0.0
2016-Jul-02 01:31N 43°29' E 010°15'0 0.0
2016-Jul-02 00:31N 43°29' E 010°15'0 0.0
2016-Jul-01 23:31N 43°29' E 010°15'0 0.0
2016-Jul-01 22:31N 43°29' E 010°15'0 0.0
2016-Jul-01 21:31N 43°29' E 010°15'0 0.0
2016-Jul-01 20:31N 43°29' E 010°15'0 0.0
2016-Jul-01 19:31N 43°29' E 010°15'0 0.0
2016-Jul-01 18:31N 43°29' E 010°15'0 0.0
2016-Jul-01 17:31N 43°29' E 010°15'0 0.0
2016-Jul-01 16:31N 43°29' E 010°15'0 0.0
2016-Jul-01 15:31N 43°29' E 010°15'0 0.0
2016-Jul-01 14:31N 43°29' E 010°15'0 0.0
2016-Jul-01 13:31N 43°29' E 010°15'0 0.2
2016-Jul-01 12:33N 43°29' E 010°15'7 6.9
2016-Jul-01 11:33N 43°23' E 010°11'1212.4
2016-Jul-01 10:33N 43°11' E 010°08'1312.5
2016-Jul-01 09:33N 42°59' E 010°03'1612.4
2016-Jul-01 08:15N 42°45' E 009°52'1012.7
2016-Jul-01 07:29N 42°35' E 009°52'1312.2
2016-Jul-01 06:24N 42°22' E 009°53'1112.8
2016-Jul-01 05:33N 42°11' E 009°54'1313.2
2016-Jul-01 04:33N 41°58' E 009°54'1312.9
2016-Jul-01 03:33N 41°45' E 009°55'1313.2
2016-Jul-01 02:33N 41°32' E 009°56'1413.0
2016-Jul-01 01:31N 41°18' E 009°56'1212.6
2016-Jul-01 00:33N 41°06' E 009°57'1312.6
2016-Jun-30 23:33N 40°54' E 009°58'1313.1
2016-Jun-30 22:32N 40°40' E 009°58'1212.6
2016-Jun-30 21:33N 40°28' E 009°59'1212.5
2016-Jun-30 20:33N 40°15' E 009°59'1312.7
2016-Jun-30 19:33N 40°03' E 009°59'2612.9
2016-Jun-30 17:31N 39°37' E 009°51'1412.7
2016-Jun-30 16:25N 39°23' E 009°47'1112.6
2016-Jun-30 15:33N 39°13' E 009°44'1411.7
2016-Jun-30 14:19N 38°59' E 009°37'810.5
2016-Jun-30 13:33N 38°59' E 009°27'1211.8
2016-Jun-30 12:33N 39°05' E 009°13'9 8.8
2016-Jun-30 11:33N 39°11' E 009°06'2 2.0
2016-Jun-30 10:33N 39°13' E 009°04'0 0.0
2016-Jun-30 09:33N 39°13' E 009°04'0 0.0
2016-Jun-30 08:33N 39°13' E 009°04'0 0.0
2016-Jun-30 07:33N 39°13' E 009°04'0 0.0
2016-Jun-30 04:33N 39°13' E 009°04'0 0.0
2016-Jun-30 03:33N 39°13' E 009°04'0 0.0
2016-Jun-30 02:33N 39°13' E 009°04'0 0.0
2016-Jun-30 01:33N 39°13' E 009°04'0 0.0
2016-Jun-30 00:33N 39°13' E 009°04'0 0.0
2016-Jun-29 23:33N 39°13' E 009°04'0 0.0
2016-Jun-29 22:33N 39°13' E 009°04'0 0.0
2016-Jun-29 21:33N 39°13' E 009°04'0 0.0
2016-Jun-29 20:33N 39°13' E 009°04'0 0.0
2016-Jun-29 19:33N 39°13' E 009°04'0 0.0
2016-Jun-29 18:33N 39°13' E 009°04'0 0.0
2016-Jun-29 17:33N 39°13' E 009°04'0 0.0
2016-Jun-29 16:33N 39°13' E 009°04'0 0.0
2016-Jun-29 15:33N 39°13' E 009°04'0 0.0
2016-Jun-29 14:33N 39°13' E 009°04'0 0.0
2016-Jun-29 13:33N 39°13' E 009°04'0 0.0
2016-Jun-29 12:33N 39°13' E 009°04'0 0.0
2016-Jun-29 11:33N 39°13' E 009°04'0 0.0
2016-Jun-29 10:33N 39°13' E 009°04'0 0.0
2016-Jun-29 09:33N 39°13' E 009°04'0 0.0
2016-Jun-29 08:33N 39°13' E 009°04'0 0.3
2016-Jun-29 07:33N 39°12' E 009°05'2 1.8
2016-Jun-29 06:20N 39°10' E 009°05'0 0.0
2016-Jun-29 05:32N 39°10' E 009°05'0 0.0
2016-Jun-29 04:32N 39°10' E 009°05'0 0.0
2016-Jun-29 03:32N 39°10' E 009°05'0 0.0
2016-Jun-29 02:32N 39°10' E 009°05'0 0.0
2016-Jun-29 01:32N 39°10' E 009°05'0 0.0
2016-Jun-29 00:32N 39°10' E 009°05'0 0.0
2016-Jun-28 23:32N 39°10' E 009°05'0 0.0
2016-Jun-28 22:32N 39°10' E 009°05'0 0.0
2016-Jun-28 21:32N 39°10' E 009°05'0 0.0
2016-Jun-28 20:32N 39°10' E 009°05'0 0.0
2016-Jun-28 19:32N 39°10' E 009°05'0 0.0
2016-Jun-28 18:32N 39°10' E 009°05'0 0.0
2016-Jun-28 17:32N 39°10' E 009°05'0 0.1
2016-Jun-28 16:32N 39°10' E 009°05'0 0.0
2016-Jun-28 15:32N 39°10' E 009°05'0 0.0
2016-Jun-28 14:32N 39°11' E 009°05'0 0.0
2016-Jun-28 13:32N 39°10' E 009°05'0 0.0
2016-Jun-28 12:32N 39°10' E 009°05'0 0.0
2016-Jun-28 11:32N 39°10' E 009°05'0 0.0
2016-Jun-28 10:32N 39°10' E 009°05'0 0.0
2016-Jun-28 09:32N 39°10' E 009°05'0 0.0
2016-Jun-28 08:32N 39°10' E 009°05'0 0.0
2016-Jun-28 07:32N 39°10' E 009°05'0 0.0
2016-Jun-28 06:32N 39°10' E 009°05'0 0.0
2016-Jun-28 04:32N 39°10' E 009°05'0 0.0
2016-Jun-28 03:32N 39°10' E 009°05'0 0.0
2016-Jun-28 02:32N 39°10' E 009°05'0 0.0
2016-Jun-28 01:32N 39°10' E 009°05'0 0.0
2016-Jun-28 00:20N 39°10' E 009°05'0 0.0
2016-Jun-27 23:32N 39°10' E 009°05'0 0.0
2016-Jun-27 22:32N 39°10' E 009°05'0 0.0
2016-Jun-27 21:32N 39°10' E 009°05'0 0.0
2016-Jun-27 20:32N 39°10' E 009°05'0 0.0
2016-Jun-27 19:32N 39°10' E 009°05'0 0.0
2016-Jun-27 18:32N 39°10' E 009°05'0 0.0
2016-Jun-27 17:32N 39°10' E 009°05'0 0.0
2016-Jun-27 16:32N 39°10' E 009°05'0 0.0
2016-Jun-27 15:32N 39°10' E 009°05'0 0.0
2016-Jun-27 14:32N 39°10' E 009°05'0 0.0
2016-Jun-27 13:32N 39°10' E 009°05'0 0.0
2016-Jun-27 12:32N 39°10' E 009°05'0 0.0
2016-Jun-27 11:32N 39°10' E 009°05'0 0.0
2016-Jun-27 10:32N 39°10' E 009°05'0 0.0
2016-Jun-27 09:32N 39°10' E 009°05'0 0.0
2016-Jun-27 07:32N 39°10' E 009°05'0 0.0
2016-Jun-27 06:32N 39°10' E 009°05'0 0.0
2016-Jun-27 05:32N 39°10' E 009°05'0 0.1
2016-Jun-27 04:33N 39°10' E 009°05'8 8.4
2016-Jun-27 03:33N 39°04' E 009°13'1211.7
2016-Jun-27 02:33N 38°57' E 009°24'1211.5
2016-Jun-27 01:33N 38°50' E 009°37'1512.1
2016-Jun-27 00:19N 38°44' E 009°54'912.3
2016-Jun-26 23:33N 38°36' E 009°60'1211.5
2016-Jun-26 22:33N 38°29' E 010°12'1212.1
2016-Jun-26 21:32N 38°22' E 010°25'1212.1
2016-Jun-26 20:33N 38°15' E 010°37'1312.6
2016-Jun-26 19:33N 38°08' E 010°50'1212.5
2016-Jun-26 18:33N 38°00' E 011°03'8 8.3
2016-Jun-26 17:33N 37°55' E 011°12'16 7.8
2016-Jun-26 15:33N 37°46' E 011°27'1312.8
2016-Jun-26 14:33N 37°39' E 011°41'1212.2
2016-Jun-26 13:32N 37°32' E 011°54'1212.1
2016-Jun-26 12:33N 37°26' E 012°07'1211.6
2016-Jun-26 11:33N 37°20' E 012°19'1211.8
2016-Jun-26 10:33N 37°14' E 012°32'1211.9
2016-Jun-26 09:33N 37°08' E 012°45'1212.0
2016-Jun-26 08:33N 37°01' E 012°57'1211.7
2016-Jun-26 07:33N 36°56' E 013°10'1211.6
2016-Jun-26 06:33N 36°50' E 013°23'1111.2
2016-Jun-26 05:33N 36°45' E 013°35'1211.6
2016-Jun-26 04:33N 36°39' E 013°48'1111.4
2016-Jun-26 03:33N 36°33' E 014°00'1010.4
2016-Jun-26 02:33N 36°28' E 014°12'1212.4
2016-Jun-26 01:33N 36°22' E 014°25'1212.2
2016-Jun-26 00:33N 36°17' E 014°38'1212.3
2016-Jun-25 23:33N 36°11' E 014°52'1212.2
2016-Jun-25 22:32N 36°06' E 015°06'1212.6
2016-Jun-25 21:33N 36°02' E 015°20'1212.2
2016-Jun-25 20:32N 35°58' E 015°35'5111.8
2016-Jun-25 16:14N 35°44' E 016°35'58312.1
2016-Jun-23 16:14N 32°51' E 027°49'811.5
2016-Jun-23 15:32N 32°48' E 027°58'105 9.6
2016-Jun-23 04:33N 32°17' E 029°58'1312.5
2016-Jun-23 03:33N 32°14' E 030°12'1312.7
2016-Jun-23 02:33N 32°10' E 030°26'1212.4
2016-Jun-23 01:33N 32°06' E 030°40'1312.9
2016-Jun-23 00:33N 32°02' E 030°55'3112.6
2016-Jun-22 22:06N 31°53' E 031°29'712.4
2016-Jun-22 21:33N 31°51' E 031°37'1212.2
2016-Jun-22 20:33N 31°47' E 031°51'1211.8
2016-Jun-22 19:33N 31°42' E 032°03'1212.0
2016-Jun-22 18:33N 31°33' E 032°13'1310.5
2016-Jun-22 17:18N 31°23' E 032°24'16 9.2
2016-Jun-22 15:33N 31°08' E 032°19'  

Dump ship's entire track history